Aviation Digital Data Service (ADDS)

Output produced by TAFs form (2309 UTC 23 July 2016)
found at http://aviationweather.gov/adds/tafs/
 
KVEL 231738Z 2318/2418 15003KT P6SM FEW100 
     FM231900 26008KT P6SM FEW150 
     FM232300 28008G18KT P6SM SCT200 
     FM240300 33010KT P6SM SKC 
     FM241500 16004KT P6SM SKC